createdAt,value
2018-06-30T00:00:10.319Z,18.03
2018-06-30T00:01:10.255Z,18.03
2018-06-30T00:02:10.197Z,18.01
2018-06-30T00:03:10.137Z,18.02
2018-06-30T00:04:10.101Z,18.01
2018-06-30T00:05:10.017Z,17.99
2018-06-30T00:06:09.956Z,18.03
2018-06-30T00:07:09.896Z,17.96
2018-06-30T00:08:09.836Z,17.94
2018-06-30T00:09:09.780Z,17.96
2018-06-30T00:10:09.714Z,18.01
2018-06-30T00:11:09.655Z,17.96
2018-06-30T00:12:09.595Z,17.97
2018-06-30T00:13:09.537Z,17.96
2018-06-30T00:14:09.473Z,17.99
2018-06-30T00:15:09.413Z,17.93
2018-06-30T00:16:09.353Z,17.91
2018-06-30T00:17:09.291Z,17.87
2018-06-30T00:18:09.235Z,17.84
2018-06-30T00:19:09.173Z,17.83
2018-06-30T00:20:09.112Z,17.88
2018-06-30T00:21:09.052Z,17.81
2018-06-30T00:22:08.991Z,17.83
2018-06-30T00:23:08.931Z,17.81
2018-06-30T00:24:08.871Z,17.78
2018-06-30T00:25:08.809Z,17.79
2018-06-30T00:26:08.757Z,17.83
2018-06-30T00:27:08.688Z,17.81
2018-06-30T00:28:08.630Z,17.83
2018-06-30T00:29:08.572Z,17.79
2018-06-30T00:30:08.508Z,17.87
2018-06-30T00:31:08.447Z,17.78
2018-06-30T00:32:08.387Z,17.73
2018-06-30T00:33:08.327Z,17.76
2018-06-30T00:34:08.273Z,17.76
2018-06-30T00:35:08.206Z,17.78
2018-06-30T00:36:08.146Z,17.66
2018-06-30T00:37:08.085Z,17.63
2018-06-30T00:38:08.028Z,17.63
2018-06-30T00:39:07.966Z,17.66
2018-06-30T00:40:07.904Z,17.62
2018-06-30T00:41:07.844Z,17.68
2018-06-30T00:42:07.785Z,17.68
2018-06-30T00:43:07.723Z,17.79
2018-06-30T00:44:07.661Z,17.65
2018-06-30T00:45:07.602Z,17.68
2018-06-30T00:46:07.541Z,17.59
2018-06-30T00:47:07.481Z,17.63
2018-06-30T00:48:07.422Z,17.57
2018-06-30T00:49:07.385Z,17.46
2018-06-30T00:50:07.298Z,17.49
2018-06-30T00:51:07.238Z,17.53
2018-06-30T00:52:07.185Z,17.46
2018-06-30T00:53:07.116Z,17.43
2018-06-30T00:54:07.056Z,17.41
2018-06-30T00:55:06.999Z,17.52
2018-06-30T00:56:06.938Z,17.45
2018-06-30T00:57:06.877Z,17.46
2018-06-30T00:58:06.814Z,17.49
2018-06-30T00:59:06.754Z,17.46
2018-06-30T01:00:06.698Z,17.47
2018-06-30T01:01:06.633Z,17.39
2018-06-30T01:02:06.573Z,17.46
2018-06-30T01:03:06.513Z,17.45
2018-06-30T01:04:06.454Z,17.45
2018-06-30T01:05:06.394Z,17.45
2018-06-30T01:06:06.331Z,17.43
2018-06-30T01:07:06.271Z,17.41
2018-06-30T01:08:06.211Z,17.47
2018-06-30T01:09:06.149Z,17.47
2018-06-30T01:10:06.090Z,17.38
2018-06-30T01:11:06.029Z,17.43
2018-06-30T01:12:05.969Z,17.43
2018-06-30T01:13:05.907Z,17.43
2018-06-30T01:14:05.847Z,17.43
2018-06-30T01:15:05.787Z,17.39
2018-06-30T01:16:05.726Z,17.37
2018-06-30T01:17:05.667Z,17.32
2018-06-30T01:18:05.609Z,17.32
2018-06-30T01:19:05.545Z,17.31
2018-06-30T01:20:05.484Z,17.38
2018-06-30T01:21:05.423Z,17.37
2018-06-30T01:22:05.362Z,17.39
2018-06-30T01:23:05.301Z,17.41
2018-06-30T01:24:05.242Z,17.37
2018-06-30T01:25:05.180Z,17.38
2018-06-30T01:26:05.118Z,17.38
2018-06-30T01:27:05.060Z,17.39
2018-06-30T01:28:05.002Z,17.34
2018-06-30T01:29:04.938Z,17.38
2018-06-30T01:30:04.881Z,17.37
2018-06-30T01:31:04.816Z,17.41
2018-06-30T01:32:04.758Z,17.35
2018-06-30T01:33:04.694Z,17.32
2018-06-30T01:34:04.633Z,17.38
2018-06-30T01:35:04.574Z,17.32
2018-06-30T01:36:04.514Z,17.25
2018-06-30T01:37:04.451Z,17.19
2018-06-30T01:38:04.393Z,17.19
2018-06-30T01:39:04.332Z,17.24
2018-06-30T01:40:04.271Z,17.19
2018-06-30T01:41:04.211Z,17.22
2018-06-30T01:42:04.149Z,17.17
2018-06-30T01:43:04.089Z,17.19
2018-06-30T01:44:04.028Z,17.20
2018-06-30T01:45:03.967Z,17.17
2018-06-30T01:46:03.902Z,17.09
2018-06-30T01:47:03.855Z,17.14
2018-06-30T01:48:03.785Z,17.16
2018-06-30T01:49:03.724Z,17.13
2018-06-30T01:50:03.668Z,17.16
2018-06-30T01:51:03.604Z,17.16
2018-06-30T01:52:03.545Z,17.13
2018-06-30T01:53:03.483Z,17.10
2018-06-30T01:54:03.419Z,17.12
2018-06-30T01:55:03.361Z,17.16
2018-06-30T01:56:03.301Z,17.16
2018-06-30T01:57:03.238Z,17.02
2018-06-30T01:58:03.178Z,17.17
2018-06-30T01:59:03.122Z,17.09
2018-06-30T02:00:03.056Z,17.12
2018-06-30T02:01:02.995Z,17.12
2018-06-30T02:02:02.934Z,17.12
2018-06-30T02:03:02.874Z,17.10
2018-06-30T02:04:02.814Z,17.04
2018-06-30T02:05:02.752Z,17.02
2018-06-30T02:06:02.693Z,17.01
2018-06-30T02:07:02.635Z,17.02
2018-06-30T02:08:02.574Z,17.04
2018-06-30T02:09:02.509Z,17.01
2018-06-30T02:10:02.448Z,16.98
2018-06-30T02:11:02.389Z,17.06
2018-06-30T02:12:02.328Z,17.01
2018-06-30T02:13:02.265Z,16.95
2018-06-30T02:14:02.206Z,16.87
2018-06-30T02:15:02.145Z,16.87
2018-06-30T02:16:02.085Z,16.97
2018-06-30T02:17:02.023Z,17.02
2018-06-30T02:18:01.960Z,17.01
2018-06-30T02:19:01.901Z,16.95
2018-06-30T02:20:01.849Z,16.98
2018-06-30T02:21:01.778Z,16.84
2018-06-30T02:22:01.721Z,16.90
2018-06-30T02:23:01.660Z,16.88
2018-06-30T02:24:01.598Z,16.79
2018-06-30T02:25:01.536Z,16.83
2018-06-30T02:26:01.475Z,16.83
2018-06-30T02:27:01.415Z,16.88
2018-06-30T02:28:01.359Z,16.74
2018-06-30T02:29:01.292Z,16.80
2018-06-30T02:30:01.230Z,16.70
2018-06-30T02:31:01.171Z,16.67
2018-06-30T02:32:01.112Z,16.69
2018-06-30T02:33:01.051Z,16.64
2018-06-30T02:34:00.993Z,16.69
2018-06-30T02:35:00.928Z,16.58
2018-06-30T02:36:00.867Z,16.70
2018-06-30T02:37:00.806Z,16.72
2018-06-30T02:38:00.745Z,16.69
2018-06-30T02:39:00.712Z,16.64
2018-06-30T02:40:00.622Z,16.72
2018-06-30T02:41:00.561Z,16.67
2018-06-30T02:42:00.502Z,16.69
2018-06-30T02:43:00.442Z,16.69
2018-06-30T02:44:00.379Z,16.69
2018-06-30T02:45:00.319Z,16.74
2018-06-30T02:46:00.373Z,16.67
2018-06-30T02:47:00.197Z,16.70
2018-06-30T02:48:00.138Z,16.70
2018-06-30T02:49:00.075Z,16.70
2018-06-30T02:50:00.018Z,16.69
2018-06-30T02:50:59.955Z,16.74
2018-06-30T02:51:59.892Z,16.59
2018-06-30T02:52:59.831Z,16.64
2018-06-30T02:53:59.768Z,16.67
2018-06-30T02:54:59.707Z,16.67
2018-06-30T02:55:59.646Z,16.64
2018-06-30T02:56:59.588Z,16.67
2018-06-30T02:57:59.524Z,16.69
2018-06-30T02:58:59.464Z,16.65
2018-06-30T02:59:59.402Z,16.64
2018-06-30T03:00:59.341Z,16.72
2018-06-30T03:01:59.284Z,16.65
2018-06-30T03:02:59.250Z,16.80
2018-06-30T03:03:59.161Z,16.67
2018-06-30T03:04:59.099Z,16.73
2018-06-30T03:05:59.036Z,16.65
2018-06-30T03:06:58.974Z,16.70
2018-06-30T03:07:58.914Z,16.69
2018-06-30T03:08:58.855Z,16.61
2018-06-30T03:09:58.794Z,16.72
2018-06-30T03:10:58.735Z,16.73
2018-06-30T03:11:58.675Z,16.67
2018-06-30T03:12:58.610Z,16.62
2018-06-30T03:13:58.549Z,16.67
2018-06-30T03:14:58.488Z,16.65
2018-06-30T03:15:58.427Z,16.62
2018-06-30T03:16:58.366Z,16.61
2018-06-30T03:17:58.304Z,16.67
2018-06-30T03:18:58.243Z,16.64
2018-06-30T03:19:58.184Z,16.64
2018-06-30T03:20:58.122Z,16.62
2018-06-30T03:21:58.060Z,16.62
2018-06-30T03:22:58.000Z,16.62
2018-06-30T03:23:57.937Z,16.61
2018-06-30T03:24:57.876Z,16.69
2018-06-30T03:25:57.817Z,16.64
2018-06-30T03:26:57.755Z,16.58
2018-06-30T03:27:57.696Z,16.70
2018-06-30T03:28:57.632Z,16.65
2018-06-30T03:29:57.573Z,16.57
2018-06-30T03:30:57.521Z,16.73
2018-06-30T03:31:57.451Z,16.62
2018-06-30T03:32:57.389Z,16.72
2018-06-30T03:33:57.327Z,16.59
2018-06-30T03:34:57.268Z,16.64
2018-06-30T03:35:57.207Z,16.65
2018-06-30T03:36:57.144Z,16.64
2018-06-30T03:37:57.084Z,16.65
2018-06-30T03:38:57.023Z,16.64
2018-06-30T03:39:56.962Z,16.65
2018-06-30T03:40:56.900Z,16.69
2018-06-30T03:41:56.842Z,16.64
2018-06-30T03:42:56.780Z,16.72
2018-06-30T03:43:56.717Z,16.72
2018-06-30T03:44:56.658Z,16.72
2018-06-30T03:45:56.594Z,16.74
2018-06-30T03:46:56.534Z,16.77
2018-06-30T03:47:56.474Z,16.76
2018-06-30T03:48:56.412Z,16.80
2018-06-30T03:49:56.353Z,16.73
2018-06-30T03:50:56.288Z,16.76
2018-06-30T03:51:56.240Z,16.67
2018-06-30T03:52:56.168Z,16.70
2018-06-30T03:53:56.107Z,16.73
2018-06-30T03:54:56.047Z,16.73
2018-06-30T03:55:55.985Z,16.73
2018-06-30T03:56:55.923Z,16.72
2018-06-30T03:57:55.861Z,16.72
2018-06-30T03:58:55.802Z,16.80
2018-06-30T03:59:55.741Z,16.73
2018-06-30T04:00:55.693Z,16.76
2018-06-30T04:01:55.618Z,16.72
2018-06-30T04:02:55.558Z,16.82
2018-06-30T04:03:55.497Z,16.73
2018-06-30T04:04:55.434Z,16.80
2018-06-30T04:05:55.376Z,16.77
2018-06-30T04:06:55.314Z,16.72
2018-06-30T04:07:55.252Z,16.76
2018-06-30T04:08:55.191Z,16.76
2018-06-30T04:09:55.128Z,16.73
2018-06-30T04:10:55.076Z,16.79
2018-06-30T04:11:55.010Z,16.77
2018-06-30T04:12:54.947Z,16.79
2018-06-30T04:13:54.886Z,16.70
2018-06-30T04:14:54.825Z,16.76
2018-06-30T04:15:54.766Z,16.76
2018-06-30T04:16:54.704Z,16.80
2018-06-30T04:17:54.646Z,16.72
2018-06-30T04:18:54.581Z,16.77
2018-06-30T04:19:54.522Z,16.76
2018-06-30T04:20:54.460Z,16.82
2018-06-30T04:21:54.399Z,16.87
2018-06-30T04:22:54.337Z,16.88
2018-06-30T04:23:54.285Z,16.82
2018-06-30T04:24:54.214Z,16.90
2018-06-30T04:25:54.155Z,16.87
2018-06-30T04:26:54.093Z,16.97
2018-06-30T04:27:54.034Z,16.91
2018-06-30T04:28:53.971Z,16.97
2018-06-30T04:29:53.912Z,16.95
2018-06-30T04:30:53.849Z,17.01
2018-06-30T04:31:53.788Z,16.98
2018-06-30T04:32:53.730Z,16.99
2018-06-30T04:33:53.666Z,17.04
2018-06-30T04:34:53.606Z,17.01
2018-06-30T04:35:53.549Z,17.01
2018-06-30T04:36:53.487Z,17.02
2018-06-30T04:37:53.436Z,17.04
2018-06-30T04:38:53.361Z,17.04
2018-06-30T04:39:53.312Z,17.09
2018-06-30T04:40:53.263Z,17.10
2018-06-30T04:41:53.252Z,17.12
2018-06-30T04:42:53.193Z,17.12
2018-06-30T04:43:53.192Z,17.16
2018-06-30T04:44:52.994Z,17.10
2018-06-30T04:45:52.936Z,17.12
2018-06-30T04:46:52.879Z,17.07
2018-06-30T04:47:52.834Z,17.19
2018-06-30T04:48:52.758Z,17.22
2018-06-30T04:49:52.694Z,17.19
2018-06-30T04:50:52.639Z,17.24
2018-06-30T04:51:52.575Z,17.35
2018-06-30T04:52:52.511Z,17.35
2018-06-30T04:53:52.450Z,17.39
2018-06-30T04:54:52.391Z,17.41
2018-06-30T04:55:52.334Z,17.41
2018-06-30T04:56:52.268Z,17.43
2018-06-30T04:57:52.207Z,17.43
2018-06-30T04:58:52.147Z,17.41
2018-06-30T04:59:52.087Z,17.39
2018-06-30T05:00:52.026Z,17.43
2018-06-30T05:01:51.965Z,17.49
2018-06-30T05:02:51.906Z,17.46
2018-06-30T05:03:51.844Z,17.62
2018-06-30T05:04:51.784Z,17.66
2018-06-30T05:05:51.722Z,17.65
2018-06-30T05:06:51.663Z,17.73
2018-06-30T05:07:51.602Z,17.75
2018-06-30T05:08:51.542Z,17.86
2018-06-30T05:09:51.480Z,17.81
2018-06-30T05:10:51.421Z,17.81
2018-06-30T05:11:51.359Z,17.84
2018-06-30T05:12:51.313Z,17.93
2018-06-30T05:13:51.250Z,17.93
2018-06-30T05:14:51.179Z,17.97
2018-06-30T05:15:51.118Z,18.02
2018-06-30T05:16:51.067Z,18.08
2018-06-30T05:17:50.996Z,18.11
2018-06-30T05:18:50.935Z,18.17
2018-06-30T05:19:50.876Z,18.18
2018-06-30T05:20:50.815Z,18.23
2018-06-30T05:21:50.756Z,18.17
2018-06-30T05:22:50.695Z,18.28
2018-06-30T05:23:50.633Z,18.41
2018-06-30T05:24:50.573Z,18.38
2018-06-30T05:25:50.529Z,18.34
2018-06-30T05:26:50.457Z,18.41
2018-06-30T05:27:50.394Z,18.57
2018-06-30T05:28:50.331Z,18.49
2018-06-30T05:29:50.272Z,18.56
2018-06-30T05:30:50.213Z,18.49
2018-06-30T05:31:50.151Z,18.67
2018-06-30T05:32:50.091Z,18.64
2018-06-30T05:33:50.031Z,18.60
2018-06-30T05:34:49.971Z,18.67
2018-06-30T05:35:49.913Z,18.78
2018-06-30T05:36:49.852Z,18.74
2018-06-30T05:37:49.791Z,18.83
2018-06-30T05:38:49.731Z,18.83
2018-06-30T05:39:49.670Z,18.93
2018-06-30T05:40:49.611Z,18.86
2018-06-30T05:41:49.550Z,18.97
2018-06-30T05:42:49.491Z,18.89
2018-06-30T05:43:49.431Z,19.05
2018-06-30T05:44:49.370Z,19.08
2018-06-30T05:45:49.313Z,19.04
2018-06-30T05:46:49.251Z,19.15
2018-06-30T05:47:49.191Z,19.09
2018-06-30T05:48:49.148Z,19.08
2018-06-30T05:49:49.071Z,19.20
2018-06-30T05:50:49.012Z,19.20
2018-06-30T05:51:48.952Z,19.24
2018-06-30T05:52:48.892Z,19.35
2018-06-30T05:53:48.833Z,19.31
2018-06-30T05:54:48.771Z,19.31
2018-06-30T05:55:48.711Z,19.34
2018-06-30T05:56:48.652Z,19.39
2018-06-30T05:57:48.594Z,19.44
2018-06-30T05:58:48.534Z,19.35
2018-06-30T05:59:48.481Z,19.49
2018-06-30T06:00:48.416Z,19.44
2018-06-30T06:01:48.351Z,19.54
2018-06-30T06:02:48.294Z,19.56
2018-06-30T06:03:48.234Z,19.52
2018-06-30T06:04:48.174Z,19.50
2018-06-30T06:05:48.116Z,19.59
2018-06-30T06:06:48.056Z,19.59
2018-06-30T06:07:47.995Z,19.62
2018-06-30T06:08:47.934Z,19.67
2018-06-30T06:09:47.958Z,19.63
2018-06-30T06:10:47.818Z,19.64
2018-06-30T06:11:47.757Z,19.72
2018-06-30T06:12:47.738Z,19.67
2018-06-30T06:13:47.636Z,19.72
2018-06-30T06:14:47.578Z,19.71
2018-06-30T06:15:47.521Z,19.72
2018-06-30T06:16:47.458Z,19.74
2018-06-30T06:17:47.400Z,19.86
2018-06-30T06:18:47.340Z,19.93
2018-06-30T06:19:47.284Z,19.82
2018-06-30T06:20:47.222Z,19.90
2018-06-30T06:21:47.163Z,19.86
2018-06-30T06:22:47.104Z,19.92
2018-06-30T06:23:47.045Z,20.08
2018-06-30T06:24:46.984Z,20.08
2018-06-30T06:25:46.956Z,20.04
2018-06-30T06:26:46.867Z,20.07
2018-06-30T06:27:46.809Z,20.09
2018-06-30T06:28:46.749Z,20.17
2018-06-30T06:29:46.690Z,20.18
2018-06-30T06:30:46.628Z,20.23
2018-06-30T06:31:46.569Z,20.26
2018-06-30T06:32:46.515Z,20.33
2018-06-30T06:33:46.452Z,20.37
2018-06-30T06:34:46.390Z,20.37
2018-06-30T06:35:46.332Z,20.33
2018-06-30T06:36:46.273Z,20.37
2018-06-30T06:37:46.213Z,20.50
2018-06-30T06:38:46.159Z,20.61
2018-06-30T06:39:46.096Z,20.58
2018-06-30T06:40:46.038Z,20.61
2018-06-30T06:41:46.010Z,20.64
2018-06-30T06:42:45.919Z,20.74
2018-06-30T06:43:45.859Z,20.73
2018-06-30T06:44:45.801Z,20.74
2018-06-30T06:45:45.742Z,20.88
2018-06-30T06:46:45.681Z,20.79
2018-06-30T06:47:45.623Z,20.97
2018-06-30T06:48:45.563Z,20.95
2018-06-30T06:49:45.506Z,21.08
2018-06-30T06:50:45.446Z,21.04
2018-06-30T06:51:45.388Z,21.11
2018-06-30T06:52:45.389Z,21.07
2018-06-30T06:53:45.274Z,21.18
2018-06-30T06:54:45.214Z,21.22
2018-06-30T06:55:45.156Z,21.35
2018-06-30T06:56:45.093Z,21.30
2018-06-30T06:57:45.035Z,21.37
2018-06-30T06:58:44.980Z,21.55
2018-06-30T06:59:44.918Z,21.65
2018-06-30T07:00:44.861Z,21.71
2018-06-30T07:01:44.802Z,21.71
2018-06-30T07:02:44.743Z,21.75
2018-06-30T07:03:44.686Z,21.71
2018-06-30T07:04:44.625Z,21.73
2018-06-30T07:05:44.571Z,21.73
2018-06-30T07:06:44.509Z,21.73
2018-06-30T07:07:44.453Z,21.71
2018-06-30T07:08:44.394Z,21.73
2018-06-30T07:09:44.332Z,21.65
2018-06-30T07:10:44.275Z,21.71
2018-06-30T07:11:44.218Z,21.73
2018-06-30T07:12:44.156Z,21.65
2018-06-30T07:13:44.103Z,21.75
2018-06-30T07:14:44.041Z,21.84
2018-06-30T07:15:43.982Z,21.98
2018-06-30T07:16:43.923Z,22.04
2018-06-30T07:17:43.866Z,22.04
2018-06-30T07:18:43.807Z,22.06
2018-06-30T07:19:43.751Z,22.11
2018-06-30T07:20:43.692Z,22.09
2018-06-30T07:21:43.633Z,22.09
2018-06-30T07:22:43.575Z,22.06
2018-06-30T07:23:43.518Z,22.12
2018-06-30T07:24:43.457Z,22.07
2018-06-30T07:25:43.403Z,22.19
2018-06-30T07:26:43.344Z,22.16
2018-06-30T07:27:43.284Z,22.21
2018-06-30T07:28:43.227Z,22.25
2018-06-30T07:29:43.167Z,22.27
2018-06-30T07:30:43.168Z,22.21
2018-06-30T07:31:43.051Z,22.25
2018-06-30T07:32:42.993Z,22.28
2018-06-30T07:33:42.936Z,22.25
2018-06-30T07:34:42.878Z,22.31
2018-06-30T07:35:42.821Z,22.44
2018-06-30T07:36:42.763Z,22.48
2018-06-30T07:37:42.705Z,22.44
2018-06-30T07:38:42.647Z,22.55
2018-06-30T07:39:42.588Z,22.61
2018-06-30T07:40:42.529Z,22.70
2018-06-30T07:41:42.473Z,22.71
2018-06-30T07:42:42.415Z,22.67
2018-06-30T07:43:42.357Z,22.74
2018-06-30T07:44:42.301Z,22.71
2018-06-30T07:45:42.241Z,22.68
2018-06-30T07:46:42.183Z,22.83
2018-06-30T07:47:42.127Z,22.85
2018-06-30T07:48:42.067Z,22.91
2018-06-30T07:49:42.011Z,22.93
2018-06-30T07:50:41.951Z,23.01
2018-06-30T07:51:41.895Z,23.06
2018-06-30T07:52:41.836Z,23.03
2018-06-30T07:53:41.779Z,23.07
2018-06-30T07:54:41.724Z,23.06
2018-06-30T07:55:41.665Z,23.10
2018-06-30T07:56:41.611Z,22.99
2018-06-30T07:57:41.548Z,23.06
2018-06-30T07:58:41.491Z,23.08
2018-06-30T07:59:41.433Z,23.15
2018-06-30T08:00:41.376Z,23.44
2018-06-30T08:01:41.316Z,23.69
2018-06-30T08:02:41.262Z,23.79
2018-06-30T08:03:41.204Z,23.78
2018-06-30T08:04:41.147Z,23.82
2018-06-30T08:05:41.086Z,23.73
2018-06-30T08:06:41.030Z,23.70
2018-06-30T08:07:40.974Z,23.63
2018-06-30T08:08:40.915Z,23.64
2018-06-30T08:09:40.857Z,23.74
2018-06-30T08:10:40.807Z,23.84
2018-06-30T08:11:40.744Z,23.82
2018-06-30T08:12:40.687Z,23.91
2018-06-30T08:13:40.630Z,23.94
2018-06-30T08:14:40.572Z,23.97
2018-06-30T08:15:40.516Z,23.86
2018-06-30T08:16:40.458Z,23.79
2018-06-30T08:17:40.400Z,23.76
2018-06-30T08:18:40.344Z,23.79
2018-06-30T08:19:40.287Z,23.71
2018-06-30T08:20:40.228Z,23.79
2018-06-30T08:21:40.173Z,23.71
2018-06-30T08:22:40.117Z,23.63
2018-06-30T08:23:40.058Z,23.63
2018-06-30T08:24:40.000Z,23.55
2018-06-30T08:25:39.942Z,23.69
2018-06-30T08:26:39.888Z,23.71
2018-06-30T08:27:39.830Z,23.85
2018-06-30T08:28:39.772Z,24.00
2018-06-30T08:29:39.716Z,24.13
2018-06-30T08:30:39.659Z,24.22
2018-06-30T08:31:39.603Z,24.38
2018-06-30T08:32:39.544Z,24.65
2018-06-30T08:33:39.490Z,24.70
2018-06-30T08:34:39.432Z,24.76
2018-06-30T08:35:39.375Z,24.76
2018-06-30T08:36:39.322Z,24.78
2018-06-30T08:37:39.260Z,24.78
2018-06-30T08:38:39.208Z,24.74
2018-06-30T08:39:39.149Z,25.00
2018-06-30T08:40:39.091Z,25.12
2018-06-30T08:41:39.033Z,25.11
2018-06-30T08:42:38.977Z,25.03
2018-06-30T08:43:38.922Z,24.91
2018-06-30T08:44:38.921Z,24.85
2018-06-30T08:45:38.806Z,24.85
2018-06-30T08:46:38.756Z,24.90
2018-06-30T08:47:38.694Z,24.78
2018-06-30T08:48:38.636Z,24.86
2018-06-30T08:49:38.581Z,24.91
2018-06-30T08:50:38.532Z,24.93
2018-06-30T08:51:38.467Z,24.85
2018-06-30T08:52:38.411Z,24.79
2018-06-30T08:53:38.356Z,25.08
2018-06-30T08:54:38.297Z,25.08
2018-06-30T08:55:38.291Z,25.09
2018-06-30T08:56:38.184Z,25.14
2018-06-30T08:57:38.128Z,25.11
2018-06-30T08:58:38.071Z,25.19
2018-06-30T08:59:38.021Z,25.26
2018-06-30T09:00:38.009Z,25.38
2018-06-30T09:01:37.903Z,25.53
2018-06-30T09:02:37.854Z,25.58
2018-06-30T09:03:37.849Z,25.61
2018-06-30T09:04:37.733Z,25.64
2018-06-30T09:05:37.678Z,25.73
2018-06-30T09:06:37.697Z,25.64
2018-06-30T09:07:37.562Z,25.70
2018-06-30T09:08:37.508Z,25.90
2018-06-30T09:09:37.451Z,26.26
2018-06-30T09:10:37.402Z,26.52
2018-06-30T09:11:37.342Z,26.78
2018-06-30T09:12:37.282Z,26.80
2018-06-30T09:13:37.222Z,27.07
2018-06-30T09:14:37.172Z,27.26
2018-06-30T09:15:37.117Z,27.30
2018-06-30T09:16:37.061Z,27.35
2018-06-30T09:17:37.008Z,27.80
2018-06-30T09:18:36.949Z,28.24
2018-06-30T09:19:36.897Z,28.77
2018-06-30T09:20:36.840Z,29.47
2018-06-30T09:21:36.784Z,30.00
2018-06-30T09:22:36.728Z,30.56
2018-06-30T09:23:36.674Z,30.65
2018-06-30T09:24:36.618Z,31.02
2018-06-30T09:25:36.565Z,30.90
2018-06-30T09:26:36.514Z,30.99
2018-06-30T09:27:36.459Z,30.88
2018-06-30T09:28:36.406Z,30.75
2018-06-30T09:29:36.375Z,30.70
2018-06-30T09:30:36.303Z,30.95
2018-06-30T09:31:36.250Z,31.32
2018-06-30T09:32:36.197Z,31.57
2018-06-30T09:33:36.144Z,31.52
2018-06-30T09:34:36.095Z,31.61
2018-06-30T09:35:36.043Z,31.48
2018-06-30T09:36:35.993Z,31.75
2018-06-30T09:37:35.944Z,31.75
2018-06-30T09:38:35.890Z,31.68
2018-06-30T09:39:35.840Z,31.89
2018-06-30T09:40:35.790Z,32.06
2018-06-30T09:41:35.739Z,32.24
2018-06-30T09:42:35.691Z,32.41
2018-06-30T09:43:35.640Z,32.36
2018-06-30T09:44:35.621Z,32.16
2018-06-30T09:45:35.543Z,32.24
2018-06-30T09:46:35.492Z,32.20
2018-06-30T09:47:35.448Z,32.23
2018-06-30T09:48:35.395Z,32.38
2018-06-30T09:49:35.349Z,32.61
2018-06-30T09:50:35.301Z,32.58
2018-06-30T09:51:35.251Z,32.51
2018-06-30T09:52:35.201Z,32.53
2018-06-30T09:53:35.158Z,32.17
2018-06-30T09:54:35.107Z,32.39
2018-06-30T09:55:35.058Z,32.77
2018-06-30T09:56:35.011Z,32.94
2018-06-30T09:57:34.961Z,32.80
2018-06-30T09:58:34.912Z,32.99
2018-06-30T09:59:34.865Z,32.87
2018-06-30T10:00:34.884Z,32.87
2018-06-30T10:01:34.772Z,33.10
2018-06-30T10:02:34.724Z,33.07
2018-06-30T10:03:34.674Z,32.92
2018-06-30T10:04:34.627Z,32.61
2018-06-30T10:05:34.578Z,32.55
2018-06-30T10:06:34.538Z,32.50
2018-06-30T10:07:34.486Z,32.11
2018-06-30T10:08:34.437Z,31.37
2018-06-30T10:09:34.395Z,31.68
2018-06-30T10:10:34.342Z,31.51
2018-06-30T10:11:34.294Z,31.52
2018-06-30T10:12:34.299Z,31.56
2018-06-30T10:13:34.197Z,31.71
2018-06-30T10:14:34.150Z,31.57
2018-06-30T10:15:34.102Z,32.02
2018-06-30T10:16:34.052Z,32.20
2018-06-30T10:17:34.045Z,32.26
2018-06-30T10:18:33.956Z,32.38
2018-06-30T10:19:33.982Z,31.86
2018-06-30T10:20:33.858Z,31.90
2018-06-30T10:21:33.810Z,31.46
2018-06-30T10:22:33.761Z,31.48
2018-06-30T10:23:33.715Z,31.22
2018-06-30T10:24:33.663Z,31.57
2018-06-30T10:25:33.617Z,31.79
2018-06-30T10:26:33.566Z,31.75
2018-06-30T10:27:33.517Z,31.59
2018-06-30T10:28:33.468Z,31.51
2018-06-30T10:29:33.420Z,31.66
2018-06-30T10:30:33.379Z,31.63
2018-06-30T10:31:33.321Z,31.51
2018-06-30T10:32:33.275Z,31.39
2018-06-30T10:33:33.223Z,31.54
2018-06-30T10:34:33.176Z,31.66
2018-06-30T10:35:33.127Z,31.97
2018-06-30T10:36:33.078Z,32.09
2018-06-30T10:37:33.189Z,32.11
2018-06-30T10:38:32.987Z,32.05
2018-06-30T10:39:32.931Z,31.78
2018-06-30T10:40:32.881Z,31.89
2018-06-30T10:41:32.833Z,31.82
2018-06-30T10:42:32.784Z,31.78
2018-06-30T10:43:32.740Z,31.78
2018-06-30T10:44:32.718Z,31.63
2018-06-30T10:45:32.638Z,31.66
2018-06-30T10:46:32.589Z,31.74
2018-06-30T10:47:32.542Z,31.90
2018-06-30T10:48:32.493Z,31.63
2018-06-30T10:49:32.443Z,31.95
2018-06-30T10:50:32.393Z,31.44
2018-06-30T10:51:32.346Z,31.60
2018-06-30T10:52:32.295Z,31.56
2018-06-30T10:53:32.246Z,31.48
2018-06-30T10:54:32.199Z,31.66
2018-06-30T10:55:32.210Z,31.91
2018-06-30T10:56:32.100Z,32.01
2018-06-30T10:57:32.051Z,32.16
2018-06-30T10:58:32.001Z,32.43
2018-06-30T10:59:31.952Z,32.60
2018-06-30T11:00:32.114Z,32.27
2018-06-30T11:01:31.854Z,31.94
2018-06-30T11:02:31.806Z,31.98
2018-06-30T11:03:31.757Z,31.76
2018-06-30T11:04:31.705Z,31.68
2018-06-30T11:05:31.658Z,31.57
2018-06-30T11:06:31.609Z,31.26
2018-06-30T11:07:31.560Z,31.10
2018-06-30T11:08:31.511Z,31.27
2018-06-30T11:09:31.461Z,31.26
2018-06-30T11:10:31.410Z,31.39
2018-06-30T11:11:31.358Z,31.19
2018-06-30T11:12:31.312Z,31.11
2018-06-30T11:13:31.263Z,31.07
2018-06-30T11:14:31.213Z,31.07
2018-06-30T11:15:31.163Z,30.75
2018-06-30T11:16:31.113Z,30.80
2018-06-30T11:17:31.119Z,30.45
2018-06-30T11:18:31.013Z,30.10
2018-06-30T11:19:30.963Z,29.56
2018-06-30T11:20:30.911Z,29.19
2018-06-30T11:21:30.861Z,28.93
2018-06-30T11:22:30.878Z,28.61
2018-06-30T11:23:30.759Z,28.42
2018-06-30T11:24:30.708Z,28.38
2018-06-30T11:25:30.657Z,28.31
2018-06-30T11:26:30.605Z,28.31
2018-06-30T11:27:30.553Z,28.27
2018-06-30T11:28:30.500Z,28.24
2018-06-30T11:29:30.481Z,28.01
2018-06-30T11:30:30.398Z,27.97
2018-06-30T11:31:30.346Z,27.95
2018-06-30T11:32:30.292Z,27.93
2018-06-30T11:33:30.240Z,27.83
2018-06-30T11:34:30.185Z,27.68
2018-06-30T11:35:30.132Z,27.66
2018-06-30T11:36:30.084Z,27.50
2018-06-30T11:37:30.026Z,27.60
2018-06-30T11:38:29.972Z,27.75
2018-06-30T11:39:29.918Z,27.75
2018-06-30T11:40:29.935Z,27.79
2018-06-30T11:41:29.812Z,27.72
2018-06-30T11:42:29.759Z,27.75
2018-06-30T11:43:29.706Z,27.68
2018-06-30T11:44:29.651Z,27.60
2018-06-30T11:45:29.596Z,27.44
2018-06-30T11:46:29.544Z,27.35
2018-06-30T11:47:29.489Z,27.31
2018-06-30T11:48:29.439Z,27.26
2018-06-30T11:49:29.387Z,27.19
2018-06-30T11:50:29.356Z,27.19
2018-06-30T11:51:29.274Z,27.12
2018-06-30T11:52:29.218Z,27.17
2018-06-30T11:53:29.162Z,27.16
2018-06-30T11:54:29.109Z,27.16
2018-06-30T11:55:29.056Z,27.16
2018-06-30T11:56:28.999Z,27.17
2018-06-30T11:57:28.971Z,27.32
2018-06-30T11:58:28.947Z,27.38
2018-06-30T11:59:28.841Z,27.37
2018-06-30T12:00:28.803Z,27.40
2018-06-30T12:01:28.726Z,27.38
2018-06-30T12:02:28.673Z,27.37
2018-06-30T12:03:28.629Z,27.30
2018-06-30T12:04:28.563Z,27.15
2018-06-30T12:05:28.508Z,27.00
2018-06-30T12:06:28.452Z,27.07
2018-06-30T12:07:28.398Z,27.07
2018-06-30T12:08:28.342Z,27.16
2018-06-30T12:09:28.289Z,27.16
2018-06-30T12:10:28.232Z,27.10
2018-06-30T12:11:28.177Z,27.08
2018-06-30T12:12:28.122Z,26.97
2018-06-30T12:13:28.068Z,27.07
2018-06-30T12:14:28.012Z,27.01
2018-06-30T12:15:27.961Z,26.98
2018-06-30T12:16:27.902Z,27.00
2018-06-30T12:17:27.847Z,26.94
2018-06-30T12:18:27.794Z,27.03
2018-06-30T12:19:27.738Z,27.05
2018-06-30T12:20:27.681Z,27.00
2018-06-30T12:21:27.628Z,26.89
2018-06-30T12:22:27.573Z,27.01
2018-06-30T12:23:27.517Z,27.01
2018-06-30T12:24:27.463Z,27.07
2018-06-30T12:25:27.406Z,27.13
2018-06-30T12:26:27.353Z,27.26
2018-06-30T12:27:27.297Z,27.25
2018-06-30T12:28:27.242Z,27.44
2018-06-30T12:29:27.183Z,27.45
2018-06-30T12:30:27.183Z,27.54
2018-06-30T12:31:27.076Z,27.60
2018-06-30T12:32:27.035Z,27.66
2018-06-30T12:33:26.966Z,27.87
2018-06-30T12:34:26.909Z,27.85
2018-06-30T12:35:26.854Z,27.78
2018-06-30T12:36:26.802Z,27.88
2018-06-30T12:37:26.744Z,27.91
2018-06-30T12:38:26.690Z,27.87
2018-06-30T12:39:26.634Z,27.87
2018-06-30T12:40:26.577Z,27.94
2018-06-30T12:41:26.520Z,27.83
2018-06-30T12:42:26.467Z,27.98
2018-06-30T12:43:26.412Z,28.00
2018-06-30T12:44:26.359Z,28.05
2018-06-30T12:45:26.304Z,27.98
2018-06-30T12:46:26.248Z,27.94
2018-06-30T12:47:26.193Z,27.90
2018-06-30T12:48:26.137Z,27.83
2018-06-30T12:49:26.080Z,27.87
2018-06-30T12:50:26.028Z,27.85
2018-06-30T12:51:25.974Z,27.73